• Join FlightAware (Why Join?)
  • Login
  • US Flag 
12:48PM EDT


 

Airport Tracker/Info


-or-


 

Live Flight TrackerFlight Track Log ✈ SKW6306 ✈ 23-Jun-2013 ✈ KDEN - KCOD

Flight Track Log - Related Links

Times and Time Zones

All times are in EDT time to prevent confusion due to time zone crossing. See the SKW6306 flight status page for this flight to view local times or setup timezone preferences in your user account.

Time Position Orientation Groundspeed Altitude Reporting Facility
EDT Latitude Longitude Course Direction KTS MPH feet Rate Location/Type
01:35AM 39.7833 -104.6667 201° Southwest 222 255 7,600  Level Denver TRACON
01:36AM 39.7167 -104.7000 201° Southwest 250 288 9,200 1,200 Climbing Denver TRACON
01:37AM 39.6819 -104.7444 225° Southwest 284 327 9,700 900 Climbing Denver Center
01:38AM 39.6667 -104.8642 261° West 340 391 10,800 1,680 Climbing Denver Center
01:39AM 39.6856 -104.9856 281° West 345 397 13,200 2,160 Climbing Denver Center
01:40AM 39.7394 -105.0942 303° West 357 411 15,200 1,860 Climbing Denver Center
01:41AM 39.7819 -105.2042 297° West 339 390 17,100 1,620 Climbing Denver Center
01:42AM 39.8253 -105.3128 297° West 341 392 18,600 1,380 Climbing Denver Center
01:43AM 39.8717 -105.4306 297° West 340 391 20,000 1,260 Climbing Denver Center
01:44AM 39.9547 -105.5072 325° Northwest 383 441 21,200 1,200 Climbing Denver Center
01:45AM 40.0500 -105.5719 333° Northwest 386 444 22,500 1,200 Climbing Denver Center
01:46AM 40.1439 -105.6367 332° Northwest 385 443 23,700 720 Climbing Denver Center
01:47AM 40.2264 -105.6953 332° Northwest 382 440 24,000 120 Climbing Denver Center
01:48AM 40.3497 -105.7769 333° Northwest 411 473 24,000  Level Denver Center
01:49AM 40.4578 -105.8528 332° Northwest 436 502 24,000  Level Denver Center
01:50AM 40.5675 -105.9281 332° Northwest 442 509 24,000  Level Denver Center
01:51AM 40.6786 -106.0069 332° Northwest 450 518 24,000  Level Denver Center
01:52AM 40.7906 -106.0850 332° Northwest 453 521 24,000  Level Denver Center
01:53AM 40.9025 -106.1625 332° Northwest 456 525 24,000  Level Denver Center
01:54AM 41.0067 -106.2378 331° Northwest 450 518 24,000  Level Denver Center
01:55AM 41.1333 -106.3258 332° Northwest 460 529 24,000  Level Denver Center
01:56AM 41.2392 -106.4019 332° Northwest 454 522 24,000  Level Denver Center
01:57AM 41.3569 -106.4856 332° Northwest 456 525 24,000  Level Denver Center
01:58AM 41.4689 -106.5661 332° Northwest 452 520 24,000  Level Denver Center
01:59AM 41.5764 -106.6433 332° Northwest 458 527 24,000  Level Denver Center
02:00AM 41.7006 -106.7322 332° Northwest 454 522 24,000  Level Denver Center
02:01AM 41.8069 -106.8097 332° Northwest 455 524 24,000  Level Denver Center
02:02AM 41.9139 -106.8886 331° Northwest 459 528 24,000  Level Denver Center
02:03AM 42.0383 -106.9789 332° Northwest 457 526 24,000  Level Denver Center
02:04AM 42.1447 -107.0564 332° Northwest 454 522 24,000  Level Denver Center
02:05AM 42.2522 -107.1356 331° Northwest 459 528 24,000  Level Denver Center
02:06AM 42.3764 -107.2281 331° Northwest 458 527 24,000  Level Denver Center
02:07AM 42.4839 -107.3078 331° Northwest 460 529 24,000  Level Denver Center
02:08AM 42.5903 -107.3867 331° Northwest 458 527 24,000  Level Denver Center
02:09AM 42.7150 -107.4811 331° Northwest 460 529 24,000  Level Denver Center
02:10AM 42.8214 -107.5600 331° Northwest 457 526 24,000  Level Denver Center
02:11AM 42.9281 -107.6414 331° Northwest 460 529 24,000 -480 Level Denver Center
02:12AM 43.0522 -107.7353 331° Northwest 459 528 23,100 -1,380 Descending Denver Center
02:13AM 43.1589 -107.8167 331° Northwest 459 528 21,300 -1,980 Descending Denver Center
02:14AM 43.2956 -107.9242 330° Northwest 452 520 18,700 -2,100 Descending Salt Lake Center
02:15AM 43.3911 -107.9997 330° Northwest 438 504 16,700 -2,100 Descending Salt Lake Center
02:16AM 43.4994 -108.0822 331° Northwest 420 483 14,500 -2,100 Descending Salt Lake Center
02:17AM 43.5928 -108.1467 333° Northwest 409 471 12,500 -1,980 Descending Salt Lake Center
02:19AM 43.6923 -108.2145 330° Northwest  Level FlightAware Approximate
02:26AM 44.3413 -108.7398 330° Northwest  Level FlightAware Approximate
02:27AM 44.4342 -108.8157 330° Northwest  Level FlightAware Approximate
02:28AM 44.5276 -108.8906 335° Northwest  Level FlightAware Approximate
02:29AM 44.6082 -108.9542 200° South  Level FlightAware Approximate
02:30AM 44.5167 -109.0167 200° South  Level FlightAware Approximate
02:31AM 44.5202 -109.0238 200° South  Level Estimated
02:32AM 44.5167 -109.0167 200° South  Level FlightAware Approximate
02:33AM 44.5202 -109.0238 200° South  Level Estimated
02:34AM 44.5167 -109.0167 200° South  Level FlightAware Approximate
02:35AM 44.5202 -109.0238 200° South  Level Estimated
02:36AM 44.5167 -109.0167 200° South  Level FlightAware Approximate
02:37AM 44.5202 -109.0238 200° South  Level Estimated
02:38AM 44.5167 -109.0167 200° South  Level FlightAware Approximate